sensor_id;sensor_type;location;lat;lon;timestamp;temperature;humidity
44851;DHT22;30583;48.714;9.386;2023-02-12T00:02:24;6.10;71.30
44851;DHT22;30583;48.714;9.386;2023-02-12T00:04:49;6.20;71.10
44851;DHT22;30583;48.714;9.386;2023-02-12T00:07:15;6.30;71.00
44851;DHT22;30583;48.714;9.386;2023-02-12T00:09:40;6.30;70.70
44851;DHT22;30583;48.714;9.386;2023-02-12T00:12:06;6.20;71.10
44851;DHT22;30583;48.714;9.386;2023-02-12T00:14:32;6.00;71.60
44851;DHT22;30583;48.714;9.386;2023-02-12T00:16:59;5.90;71.90
44851;DHT22;30583;48.714;9.386;2023-02-12T00:19:24;6.00;72.10
44851;DHT22;30583;48.714;9.386;2023-02-12T00:21:50;6.10;71.80
44851;DHT22;30583;48.714;9.386;2023-02-12T00:24:15;5.90;71.80
44851;DHT22;30583;48.714;9.386;2023-02-12T00:26:41;5.90;72.00
44851;DHT22;30583;48.714;9.386;2023-02-12T00:29:07;6.10;71.60
44851;DHT22;30583;48.714;9.386;2023-02-12T00:31:32;6.20;71.20
44851;DHT22;30583;48.714;9.386;2023-02-12T00:33:58;6.10;71.10
44851;DHT22;30583;48.714;9.386;2023-02-12T00:36:28;6.00;71.80
44851;DHT22;30583;48.714;9.386;2023-02-12T00:38:55;5.70;71.90
44851;DHT22;30583;48.714;9.386;2023-02-12T00:41:21;5.80;72.50
44851;DHT22;30583;48.714;9.386;2023-02-12T00:43:47;6.00;71.90
44851;DHT22;30583;48.714;9.386;2023-02-12T00:46:13;6.10;71.50
44851;DHT22;30583;48.714;9.386;2023-02-12T00:48:39;6.10;71.40
44851;DHT22;30583;48.714;9.386;2023-02-12T00:51:05;6.10;71.20
44851;DHT22;30583;48.714;9.386;2023-02-12T00:53:31;6.00;71.50
44851;DHT22;30583;48.714;9.386;2023-02-12T00:55:57;6.00;71.80
44851;DHT22;30583;48.714;9.386;2023-02-12T00:58:22;6.00;71.50
44851;DHT22;30583;48.714;9.386;2023-02-12T01:00:48;6.10;71.10
44851;DHT22;30583;48.714;9.386;2023-02-12T01:03:14;6.00;71.60
44851;DHT22;30583;48.714;9.386;2023-02-12T01:05:40;6.10;71.30
44851;DHT22;30583;48.714;9.386;2023-02-12T01:08:06;6.00;71.60
44851;DHT22;30583;48.714;9.386;2023-02-12T01:10:31;6.00;71.60
44851;DHT22;30583;48.714;9.386;2023-02-12T01:12:57;5.70;72.30
44851;DHT22;30583;48.714;9.386;2023-02-12T01:15:23;6.00;71.80
44851;DHT22;30583;48.714;9.386;2023-02-12T01:17:52;6.10;71.20
44851;DHT22;30583;48.714;9.386;2023-02-12T01:20:20;5.60;72.10
44851;DHT22;30583;48.714;9.386;2023-02-12T01:22:46;5.60;73.10
44851;DHT22;30583;48.714;9.386;2023-02-12T01:25:12;5.70;72.10
44851;DHT22;30583;48.714;9.386;2023-02-12T01:27:38;6.00;71.70
44851;DHT22;30583;48.714;9.386;2023-02-12T01:30:05;5.90;71.60
44851;DHT22;30583;48.714;9.386;2023-02-12T01:32:31;6.00;71.50
44851;DHT22;30583;48.714;9.386;2023-02-12T01:34:58;6.00;71.20
44851;DHT22;30583;48.714;9.386;2023-02-12T01:37:23;5.70;72.00
44851;DHT22;30583;48.714;9.386;2023-02-12T01:39:49;5.60;72.40
44851;DHT22;30583;48.714;9.386;2023-02-12T01:42:15;5.90;72.10
44851;DHT22;30583;48.714;9.386;2023-02-12T01:45:17;6.20;71.30
44851;DHT22;30583;48.714;9.386;2023-02-12T01:47:30;6.00;71.50
44851;DHT22;30583;48.714;9.386;2023-02-12T01:49:56;5.80;72.00
44851;DHT22;30583;48.714;9.386;2023-02-12T01:52:28;6.00;71.60
44851;DHT22;30583;48.714;9.386;2023-02-12T01:54:58;6.10;71.30
44851;DHT22;30583;48.714;9.386;2023-02-12T01:57:26;6.00;71.70
44851;DHT22;30583;48.714;9.386;2023-02-12T01:59:54;5.90;72.00
44851;DHT22;30583;48.714;9.386;2023-02-12T02:02:20;6.00;71.90
44851;DHT22;30583;48.714;9.386;2023-02-12T02:04:50;5.90;71.90
44851;DHT22;30583;48.714;9.386;2023-02-12T02:07:17;5.70;72.40
44851;DHT22;30583;48.714;9.386;2023-02-12T02:09:43;5.60;72.70
44851;DHT22;30583;48.714;9.386;2023-02-12T02:12:09;5.80;72.50
44851;DHT22;30583;48.714;9.386;2023-02-12T02:14:56;5.90;71.90
44851;DHT22;30583;48.714;9.386;2023-02-12T02:20:15;6.00;71.30
44851;DHT22;30583;48.714;9.386;2023-02-12T02:31:13;5.80;71.70
44851;DHT22;30583;48.714;9.386;2023-02-12T02:36:34;5.70;71.60
44851;DHT22;30583;48.714;9.386;2023-02-12T02:42:36;6.00;71.30
44851;DHT22;30583;48.714;9.386;2023-02-12T02:45:11;5.90;71.10
44851;DHT22;30583;48.714;9.386;2023-02-12T02:47:44;6.10;70.80
44851;DHT22;30583;48.714;9.386;2023-02-12T02:50:16;5.90;71.10
44851;DHT22;30583;48.714;9.386;2023-02-12T02:52:58;5.80;71.90
44851;DHT22;30583;48.714;9.386;2023-02-12T02:55:35;6.10;71.20
44851;DHT22;30583;48.714;9.386;2023-02-12T02:58:30;6.10;71.00
44851;DHT22;30583;48.714;9.386;2023-02-12T03:01:21;6.00;71.40
44851;DHT22;30583;48.714;9.386;2023-02-12T03:04:00;5.70;72.20
44851;DHT22;30583;48.714;9.386;2023-02-12T03:09:21;5.90;72.10
44851;DHT22;30583;48.714;9.386;2023-02-12T03:11:49;5.90;71.90
44851;DHT22;30583;48.714;9.386;2023-02-12T03:14:31;5.80;72.00
44851;DHT22;30583;48.714;9.386;2023-02-12T03:16:59;5.70;72.50
44851;DHT22;30583;48.714;9.386;2023-02-12T03:19:29;5.80;72.30
44851;DHT22;30583;48.714;9.386;2023-02-12T03:22:21;5.90;71.70
44851;DHT22;30583;48.714;9.386;2023-02-12T03:28:02;5.80;72.30
44851;DHT22;30583;48.714;9.386;2023-02-12T03:30:54;5.90;71.90
44851;DHT22;30583;48.714;9.386;2023-02-12T03:33:43;5.70;72.30
44851;DHT22;30583;48.714;9.386;2023-02-12T03:38:44;5.90;72.10
44851;DHT22;30583;48.714;9.386;2023-02-12T03:41:29;5.70;72.50
44851;DHT22;30583;48.714;9.386;2023-02-12T03:44:07;5.70;72.50
44851;DHT22;30583;48.714;9.386;2023-02-12T03:46:59;5.70;72.50
44851;DHT22;30583;48.714;9.386;2023-02-12T03:49:33;5.60;72.90
44851;DHT22;30583;48.714;9.386;2023-02-12T03:52:02;5.50;72.90
44851;DHT22;30583;48.714;9.386;2023-02-12T03:54:28;5.50;73.30
44851;DHT22;30583;48.714;9.386;2023-02-12T03:57:08;5.60;72.90
44851;DHT22;30583;48.714;9.386;2023-02-12T03:59:36;5.50;73.00
44851;DHT22;30583;48.714;9.386;2023-02-12T04:02:02;5.80;72.20
44851;DHT22;30583;48.714;9.386;2023-02-12T04:04:28;5.90;71.90
44851;DHT22;30583;48.714;9.386;2023-02-12T04:06:55;5.80;71.80
44851;DHT22;30583;48.714;9.386;2023-02-12T04:09:21;5.90;71.90
44851;DHT22;30583;48.714;9.386;2023-02-12T04:14:52;5.70;72.50
44851;DHT22;30583;48.714;9.386;2023-02-12T04:20:15;5.70;72.60
44851;DHT22;30583;48.714;9.386;2023-02-12T04:28:24;5.70;72.20
44851;DHT22;30583;48.714;9.386;2023-02-12T04:31:09;5.60;72.80
44851;DHT22;30583;48.714;9.386;2023-02-12T04:34:04;5.60;73.20
44851;DHT22;30583;48.714;9.386;2023-02-12T04:36:56;5.70;72.60
44851;DHT22;30583;48.714;9.386;2023-02-12T04:39:26;5.90;72.10
44851;DHT22;30583;48.714;9.386;2023-02-12T04:41:53;5.60;72.70
44851;DHT22;30583;48.714;9.386;2023-02-12T04:44:24;5.60;73.10
44851;DHT22;30583;48.714;9.386;2023-02-12T04:46:50;5.70;72.70
44851;DHT22;30583;48.714;9.386;2023-02-12T04:49:18;5.90;72.30
44851;DHT22;30583;48.714;9.386;2023-02-12T04:51:44;5.80;72.40
44851;DHT22;30583;48.714;9.386;2023-02-12T04:54:11;5.70;72.70
44851;DHT22;30583;48.714;9.386;2023-02-12T04:56:37;5.70;73.00
44851;DHT22;30583;48.714;9.386;2023-02-12T04:59:02;5.70;72.90
44851;DHT22;30583;48.714;9.386;2023-02-12T05:01:28;5.70;73.30
44851;DHT22;30583;48.714;9.386;2023-02-12T05:03:54;5.60;73.70
44851;DHT22;30583;48.714;9.386;2023-02-12T05:06:20;5.60;73.80
44851;DHT22;30583;48.714;9.386;2023-02-12T05:08:45;5.60;74.00
44851;DHT22;30583;48.714;9.386;2023-02-12T05:11:11;5.60;74.10
44851;DHT22;30583;48.714;9.386;2023-02-12T05:13:37;5.60;73.80
44851;DHT22;30583;48.714;9.386;2023-02-12T05:16:06;5.60;73.80
44851;DHT22;30583;48.714;9.386;2023-02-12T05:18:33;5.60;74.00
44851;DHT22;30583;48.714;9.386;2023-02-12T05:21:02;5.70;73.70
44851;DHT22;30583;48.714;9.386;2023-02-12T05:23:29;5.60;73.70
44851;DHT22;30583;48.714;9.386;2023-02-12T05:25:58;5.40;74.50
44851;DHT22;30583;48.714;9.386;2023-02-12T05:28:24;5.70;73.90
44851;DHT22;30583;48.714;9.386;2023-02-12T05:30:50;5.80;73.20
44851;DHT22;30583;48.714;9.386;2023-02-12T05:33:16;5.60;73.60
44851;DHT22;30583;48.714;9.386;2023-02-12T05:35:41;5.60;73.90
44851;DHT22;30583;48.714;9.386;2023-02-12T05:38:07;5.50;73.90
44851;DHT22;30583;48.714;9.386;2023-02-12T05:40:32;5.60;73.70
44851;DHT22;30583;48.714;9.386;2023-02-12T05:42:58;5.70;73.50
44851;DHT22;30583;48.714;9.386;2023-02-12T05:45:24;5.60;73.50
44851;DHT22;30583;48.714;9.386;2023-02-12T05:47:55;5.70;73.30
44851;DHT22;30583;48.714;9.386;2023-02-12T05:50:21;5.40;74.00
44851;DHT22;30583;48.714;9.386;2023-02-12T05:52:47;5.70;73.80
44851;DHT22;30583;48.714;9.386;2023-02-12T05:55:13;5.80;73.20
44851;DHT22;30583;48.714;9.386;2023-02-12T05:57:38;5.80;73.10
44851;DHT22;30583;48.714;9.386;2023-02-12T06:00:06;5.60;73.40
44851;DHT22;30583;48.714;9.386;2023-02-12T06:02:33;5.70;73.80
44851;DHT22;30583;48.714;9.386;2023-02-12T06:04:59;5.60;73.90
44851;DHT22;30583;48.714;9.386;2023-02-12T06:07:24;5.60;74.30
44851;DHT22;30583;48.714;9.386;2023-02-12T06:09:50;5.50;74.50
44851;DHT22;30583;48.714;9.386;2023-02-12T06:12:16;5.60;74.30
44851;DHT22;30583;48.714;9.386;2023-02-12T06:14:41;5.60;74.30
44851;DHT22;30583;48.714;9.386;2023-02-12T06:17:07;5.40;74.50
44851;DHT22;30583;48.714;9.386;2023-02-12T06:19:33;5.50;74.60
44851;DHT22;30583;48.714;9.386;2023-02-12T06:21:58;5.60;74.30
44851;DHT22;30583;48.714;9.386;2023-02-12T06:24:24;5.50;74.50
44851;DHT22;30583;48.714;9.386;2023-02-12T06:26:50;5.40;74.80
44851;DHT22;30583;48.714;9.386;2023-02-12T06:29:18;5.50;74.80
44851;DHT22;30583;48.714;9.386;2023-02-12T06:31:43;5.50;74.80
44851;DHT22;30583;48.714;9.386;2023-02-12T06:34:10;5.40;74.90
44851;DHT22;30583;48.714;9.386;2023-02-12T06:36:38;5.40;75.10
44851;DHT22;30583;48.714;9.386;2023-02-12T06:39:04;5.40;75.10
44851;DHT22;30583;48.714;9.386;2023-02-12T06:41:30;6.00;76.80
44851;DHT22;30583;48.714;9.386;2023-02-12T06:43:56;6.30;74.10
44851;DHT22;30583;48.714;9.386;2023-02-12T06:46:22;6.50;73.10
44851;DHT22;30583;48.714;9.386;2023-02-12T06:48:48;6.60;72.30
44851;DHT22;30583;48.714;9.386;2023-02-12T06:51:18;6.60;72.00
44851;DHT22;30583;48.714;9.386;2023-02-12T06:53:46;6.50;72.10
44851;DHT22;30583;48.714;9.386;2023-02-12T06:56:12;6.50;72.00
44851;DHT22;30583;48.714;9.386;2023-02-12T06:58:43;6.20;72.20
44851;DHT22;30583;48.714;9.386;2023-02-12T07:01:20;5.90;73.20
44851;DHT22;30583;48.714;9.386;2023-02-12T07:03:49;5.80;73.80
44851;DHT22;30583;48.714;9.386;2023-02-12T07:06:15;5.70;74.10
44851;DHT22;30583;48.714;9.386;2023-02-12T07:08:40;5.50;74.90
44851;DHT22;30583;48.714;9.386;2023-02-12T07:11:07;5.70;74.60
44851;DHT22;30583;48.714;9.386;2023-02-12T07:13:33;5.70;74.70
44851;DHT22;30583;48.714;9.386;2023-02-12T07:16:04;5.80;74.10
44851;DHT22;30583;48.714;9.386;2023-02-12T07:18:30;5.80;74.10
44851;DHT22;30583;48.714;9.386;2023-02-12T07:20:55;5.70;74.30
44851;DHT22;30583;48.714;9.386;2023-02-12T07:23:21;5.70;74.60
44851;DHT22;30583;48.714;9.386;2023-02-12T07:25:57;5.70;74.80
44851;DHT22;30583;48.714;9.386;2023-02-12T07:28:23;5.70;74.70
44851;DHT22;30583;48.714;9.386;2023-02-12T07:30:49;5.80;74.70
44851;DHT22;30583;48.714;9.386;2023-02-12T07:33:14;5.90;74.60
44851;DHT22;30583;48.714;9.386;2023-02-12T07:35:40;5.90;74.40
44851;DHT22;30583;48.714;9.386;2023-02-12T07:38:06;5.80;74.50
44851;DHT22;30583;48.714;9.386;2023-02-12T07:40:31;5.80;74.70
44851;DHT22;30583;48.714;9.386;2023-02-12T07:42:57;5.90;74.50
44851;DHT22;30583;48.714;9.386;2023-02-12T07:45:23;6.00;74.10
44851;DHT22;30583;48.714;9.386;2023-02-12T07:47:49;6.00;73.70
44851;DHT22;30583;48.714;9.386;2023-02-12T07:50:15;6.00;74.10
44851;DHT22;30583;48.714;9.386;2023-02-12T07:52:40;6.00;74.00
44851;DHT22;30583;48.714;9.386;2023-02-12T07:55:06;5.70;74.50
44851;DHT22;30583;48.714;9.386;2023-02-12T07:57:34;5.80;74.70
44851;DHT22;30583;48.714;9.386;2023-02-12T07:59:59;5.80;74.30
44851;DHT22;30583;48.714;9.386;2023-02-12T08:02:25;5.80;74.40
44851;DHT22;30583;48.714;9.386;2023-02-12T08:04:55;6.00;74.20
44851;DHT22;30583;48.714;9.386;2023-02-12T08:07:21;6.10;73.60
44851;DHT22;30583;48.714;9.386;2023-02-12T08:09:46;6.10;73.60
44851;DHT22;30583;48.714;9.386;2023-02-12T08:12:12;6.20;73.20
44851;DHT22;30583;48.714;9.386;2023-02-12T08:14:38;6.20;73.30
44851;DHT22;30583;48.714;9.386;2023-02-12T08:17:03;6.20;73.60
44851;DHT22;30583;48.714;9.386;2023-02-12T08:19:29;6.20;73.40
44851;DHT22;30583;48.714;9.386;2023-02-12T08:21:55;6.50;72.80
44851;DHT22;30583;48.714;9.386;2023-02-12T08:24:21;6.60;72.40
44851;DHT22;30583;48.714;9.386;2023-02-12T08:26:47;6.50;72.40
44851;DHT22;30583;48.714;9.386;2023-02-12T08:29:15;6.50;72.40
44851;DHT22;30583;48.714;9.386;2023-02-12T08:31:44;6.40;72.60
44851;DHT22;30583;48.714;9.386;2023-02-12T08:34:27;6.50;72.80
44851;DHT22;30583;48.714;9.386;2023-02-12T08:36:54;6.50;72.90
44851;DHT22;30583;48.714;9.386;2023-02-12T08:39:21;6.70;72.80
44851;DHT22;30583;48.714;9.386;2023-02-12T08:41:47;6.80;72.30
44851;DHT22;30583;48.714;9.386;2023-02-12T08:44:14;7.00;71.80
44851;DHT22;30583;48.714;9.386;2023-02-12T08:46:43;7.10;71.50
44851;DHT22;30583;48.714;9.386;2023-02-12T08:49:13;7.10;71.60
44851;DHT22;30583;48.714;9.386;2023-02-12T08:51:42;7.10;71.80
44851;DHT22;30583;48.714;9.386;2023-02-12T08:54:11;7.10;71.90
44851;DHT22;30583;48.714;9.386;2023-02-12T08:56:37;7.10;71.70
44851;DHT22;30583;48.714;9.386;2023-02-12T08:59:05;7.10;72.00
44851;DHT22;30583;48.714;9.386;2023-02-12T09:01:35;7.20;72.10
44851;DHT22;30583;48.714;9.386;2023-02-12T09:04:05;7.40;71.60
44851;DHT22;30583;48.714;9.386;2023-02-12T09:06:32;7.50;71.90
44851;DHT22;30583;48.714;9.386;2023-02-12T09:08:59;7.60;71.40
44851;DHT22;30583;48.714;9.386;2023-02-12T09:11:26;7.70;71.30
44851;DHT22;30583;48.714;9.386;2023-02-12T09:13:56;7.70;71.30
44851;DHT22;30583;48.714;9.386;2023-02-12T09:16:22;7.60;71.40
44851;DHT22;30583;48.714;9.386;2023-02-12T09:18:48;7.80;71.20
44851;DHT22;30583;48.714;9.386;2023-02-12T09:21:14;7.90;71.40
44851;DHT22;30583;48.714;9.386;2023-02-12T09:23:42;8.00;70.90
44851;DHT22;30583;48.714;9.386;2023-02-12T09:26:10;8.00;71.10
44851;DHT22;30583;48.714;9.386;2023-02-12T09:28:36;8.10;71.40
44851;DHT22;30583;48.714;9.386;2023-02-12T09:31:10;8.30;71.00
44851;DHT22;30583;48.714;9.386;2023-02-12T09:33:36;8.30;71.00
44851;DHT22;30583;48.714;9.386;2023-02-12T09:36:08;8.40;70.50
44851;DHT22;30583;48.714;9.386;2023-02-12T09:38:34;8.20;72.00
44851;DHT22;30583;48.714;9.386;2023-02-12T09:46:34;7.70;74.40
44851;DHT22;30583;48.714;9.386;2023-02-12T09:49:34;7.80;74.90
44851;DHT22;30583;48.714;9.386;2023-02-12T09:51:58;7.80;75.10
44851;DHT22;30583;48.714;9.386;2023-02-12T09:54:37;8.10;74.50
44851;DHT22;30583;48.714;9.386;2023-02-12T09:57:11;8.00;73.90
44851;DHT22;30583;48.714;9.386;2023-02-12T09:59:42;8.00;73.80
44851;DHT22;30583;48.714;9.386;2023-02-12T10:02:16;8.10;73.60
44851;DHT22;30583;48.714;9.386;2023-02-12T10:04:43;8.30;73.30
44851;DHT22;30583;48.714;9.386;2023-02-12T10:12:50;8.40;71.90
44851;DHT22;30583;48.714;9.386;2023-02-12T10:18:49;8.50;71.40
44851;DHT22;30583;48.714;9.386;2023-02-12T10:26:59;8.40;72.30
44851;DHT22;30583;48.714;9.386;2023-02-12T10:29:33;8.40;71.70
44851;DHT22;30583;48.714;9.386;2023-02-12T10:34:50;8.30;72.20
44851;DHT22;30583;48.714;9.386;2023-02-12T10:40:01;8.70;71.80
44851;DHT22;30583;48.714;9.386;2023-02-12T10:43:03;8.60;71.30
44851;DHT22;30583;48.714;9.386;2023-02-12T10:45:36;8.30;72.60
44851;DHT22;30583;48.714;9.386;2023-02-12T10:48:32;8.50;71.50
44851;DHT22;30583;48.714;9.386;2023-02-12T10:53:39;8.50;71.80
44851;DHT22;30583;48.714;9.386;2023-02-12T10:58:54;8.70;71.20
44851;DHT22;30583;48.714;9.386;2023-02-12T11:01:36;8.50;72.00
44851;DHT22;30583;48.714;9.386;2023-02-12T11:04:18;8.40;72.40
44851;DHT22;30583;48.714;9.386;2023-02-12T11:07:06;8.40;72.30
44851;DHT22;30583;48.714;9.386;2023-02-12T11:09:37;8.50;71.90
44851;DHT22;30583;48.714;9.386;2023-02-12T11:14:56;8.40;72.50
44851;DHT22;30583;48.714;9.386;2023-02-12T11:17:35;8.30;72.90
44851;DHT22;30583;48.714;9.386;2023-02-12T11:22:59;8.70;71.80
44851;DHT22;30583;48.714;9.386;2023-02-12T11:25:36;8.30;73.00
44851;DHT22;30583;48.714;9.386;2023-02-12T11:28:18;8.30;73.40
44851;DHT22;30583;48.714;9.386;2023-02-12T11:33:30;8.30;73.30
44851;DHT22;30583;48.714;9.386;2023-02-12T11:38:33;8.40;73.50
44851;DHT22;30583;48.714;9.386;2023-02-12T11:41:04;8.40;72.70
44851;DHT22;30583;48.714;9.386;2023-02-12T11:43:33;8.30;73.10
44851;DHT22;30583;48.714;9.386;2023-02-12T11:46:02;8.50;73.10
44851;DHT22;30583;48.714;9.386;2023-02-12T11:48:32;8.50;72.60
44851;DHT22;30583;48.714;9.386;2023-02-12T11:51:01;8.40;72.90
44851;DHT22;30583;48.714;9.386;2023-02-12T11:53:32;8.50;72.80
44851;DHT22;30583;48.714;9.386;2023-02-12T11:56:04;8.50;72.70
44851;DHT22;30583;48.714;9.386;2023-02-12T11:58:31;8.60;72.70
44851;DHT22;30583;48.714;9.386;2023-02-12T12:01:21;8.60;72.30
44851;DHT22;30583;48.714;9.386;2023-02-12T12:04:03;8.50;72.40
44851;DHT22;30583;48.714;9.386;2023-02-12T12:06:32;8.50;72.70
44851;DHT22;30583;48.714;9.386;2023-02-12T12:14:43;8.80;71.90
44851;DHT22;30583;48.714;9.386;2023-02-12T12:17:40;9.00;71.10
44851;DHT22;30583;48.714;9.386;2023-02-12T12:20:32;8.90;71.30
44851;DHT22;30583;48.714;9.386;2023-02-12T12:23:04;8.90;71.40
44851;DHT22;30583;48.714;9.386;2023-02-12T12:25:51;8.80;71.40
44851;DHT22;30583;48.714;9.386;2023-02-12T12:31:22;8.90;71.40
44851;DHT22;30583;48.714;9.386;2023-02-12T12:33:52;9.00;70.90
44851;DHT22;30583;48.714;9.386;2023-02-12T13:14:13;11.10;63.60
44851;DHT22;30583;48.714;9.386;2023-02-12T13:16:48;11.00;64.40
44851;DHT22;30583;48.714;9.386;2023-02-12T13:19:37;10.70;65.90
44851;DHT22;30583;48.714;9.386;2023-02-12T13:22:18;11.50;62.40
44851;DHT22;30583;48.714;9.386;2023-02-12T13:24:57;10.40;65.80
44851;DHT22;30583;48.714;9.386;2023-02-12T13:27:29;10.80;65.00
44851;DHT22;30583;48.714;9.386;2023-02-12T13:30:16;10.70;64.40
44851;DHT22;30583;48.714;9.386;2023-02-12T13:32:44;10.90;64.80
44851;DHT22;30583;48.714;9.386;2023-02-12T13:35:17;11.30;62.80
44851;DHT22;30583;48.714;9.386;2023-02-12T13:37:47;11.20;63.30
44851;DHT22;30583;48.714;9.386;2023-02-12T13:40:22;11.70;61.90
44851;DHT22;30583;48.714;9.386;2023-02-12T13:48:24;11.50;62.30
44851;DHT22;30583;48.714;9.386;2023-02-12T13:53:51;11.70;61.90
44851;DHT22;30583;48.714;9.386;2023-02-12T13:56:51;12.20;60.20
44851;DHT22;30583;48.714;9.386;2023-02-12T14:04:56;11.60;61.60
44851;DHT22;30583;48.714;9.386;2023-02-12T14:10:05;12.10;60.40
44851;DHT22;30583;48.714;9.386;2023-02-12T14:12:34;12.30;59.40
44851;DHT22;30583;48.714;9.386;2023-02-12T14:15:09;11.60;61.90
44851;DHT22;30583;48.714;9.386;2023-02-12T14:20:34;12.00;60.40
44851;DHT22;30583;48.714;9.386;2023-02-12T14:25:47;12.20;60.00
44851;DHT22;30583;48.714;9.386;2023-02-12T14:31:19;13.10;58.70
44851;DHT22;30583;48.714;9.386;2023-02-12T14:33:47;12.90;57.80
44851;DHT22;30583;48.714;9.386;2023-02-12T14:36:35;13.20;56.50
44851;DHT22;30583;48.714;9.386;2023-02-12T14:41:43;13.30;56.70
44851;DHT22;30583;48.714;9.386;2023-02-12T14:46:59;12.20;60.00
44851;DHT22;30583;48.714;9.386;2023-02-12T14:49:54;11.60;61.60
44851;DHT22;30583;48.714;9.386;2023-02-12T14:52:25;12.60;59.60
44851;DHT22;30583;48.714;9.386;2023-02-12T14:55:05;13.90;55.10
44851;DHT22;30583;48.714;9.386;2023-02-12T14:57:37;12.30;60.50
44851;DHT22;30583;48.714;9.386;2023-02-12T15:00:26;12.10;59.70
44851;DHT22;30583;48.714;9.386;2023-02-12T15:08:25;13.40;57.70
44851;DHT22;30583;48.714;9.386;2023-02-12T15:10:54;12.30;59.00
44851;DHT22;30583;48.714;9.386;2023-02-12T15:15:58;12.00;61.20
44851;DHT22;30583;48.714;9.386;2023-02-12T15:21:31;13.50;57.70
44851;DHT22;30583;48.714;9.386;2023-02-12T15:24:05;12.20;59.50
44851;DHT22;30583;48.714;9.386;2023-02-12T15:26:40;12.80;58.00
44851;DHT22;30583;48.714;9.386;2023-02-12T15:29:25;12.80;58.30
44851;DHT22;30583;48.714;9.386;2023-02-12T15:31:56;12.50;59.70
44851;DHT22;30583;48.714;9.386;2023-02-12T15:34:25;12.90;57.40
44851;DHT22;30583;48.714;9.386;2023-02-12T15:36:55;12.20;60.00
44851;DHT22;30583;48.714;9.386;2023-02-12T15:39:23;12.20;59.80
44851;DHT22;30583;48.714;9.386;2023-02-12T15:41:49;12.10;59.30
44851;DHT22;30583;48.714;9.386;2023-02-12T15:44:28;12.20;59.50
44851;DHT22;30583;48.714;9.386;2023-02-12T15:47:08;12.00;59.50
44851;DHT22;30583;48.714;9.386;2023-02-12T15:49:36;12.20;59.30
44851;DHT22;30583;48.714;9.386;2023-02-12T15:54:35;12.20;58.90
44851;DHT22;30583;48.714;9.386;2023-02-12T15:57:08;11.60;61.20
44851;DHT22;30583;48.714;9.386;2023-02-12T15:59:35;12.00;59.70
44851;DHT22;30583;48.714;9.386;2023-02-12T16:02:01;11.90;60.40
44851;DHT22;30583;48.714;9.386;2023-02-12T16:04:33;11.00;62.20
44851;DHT22;30583;48.714;9.386;2023-02-12T16:07:01;10.10;65.60
44851;DHT22;30583;48.714;9.386;2023-02-12T16:09:31;10.40;65.40
44851;DHT22;30583;48.714;9.386;2023-02-12T16:12:00;10.20;66.20
44851;DHT22;30583;48.714;9.386;2023-02-12T16:14:41;10.30;65.50
44851;DHT22;30583;48.714;9.386;2023-02-12T16:17:29;9.70;67.30
44851;DHT22;30583;48.714;9.386;2023-02-12T16:20:25;9.20;68.80
44851;DHT22;30583;48.714;9.386;2023-02-12T16:22:50;9.40;68.60
44851;DHT22;30583;48.714;9.386;2023-02-12T16:28:14;9.70;67.70
44851;DHT22;30583;48.714;9.386;2023-02-12T16:30:43;9.60;67.20
44851;DHT22;30583;48.714;9.386;2023-02-12T16:33:51;9.10;69.30
44851;DHT22;30583;48.714;9.386;2023-02-12T16:39:00;9.80;66.80
44851;DHT22;30583;48.714;9.386;2023-02-12T16:41:50;9.60;67.50
44851;DHT22;30583;48.714;9.386;2023-02-12T16:44:20;9.00;69.20
44851;DHT22;30583;48.714;9.386;2023-02-12T16:46:54;9.10;68.90
44851;DHT22;30583;48.714;9.386;2023-02-12T16:49:22;8.70;69.80
44851;DHT22;30583;48.714;9.386;2023-02-12T16:51:50;9.00;69.20
44851;DHT22;30583;48.714;9.386;2023-02-12T16:54:31;9.00;69.50
44851;DHT22;30583;48.714;9.386;2023-02-12T16:56:58;8.90;69.90
44851;DHT22;30583;48.714;9.386;2023-02-12T16:59:25;9.10;69.20
44851;DHT22;30583;48.714;9.386;2023-02-12T17:02:00;9.00;69.00
44851;DHT22;30583;48.714;9.386;2023-02-12T17:04:26;9.00;69.10
44851;DHT22;30583;48.714;9.386;2023-02-12T17:06:51;9.10;68.70
44851;DHT22;30583;48.714;9.386;2023-02-12T17:09:17;9.10;68.80
44851;DHT22;30583;48.714;9.386;2023-02-12T17:11:43;8.90;69.40
44851;DHT22;30583;48.714;9.386;2023-02-12T17:14:14;8.90;69.50
44851;DHT22;30583;48.714;9.386;2023-02-12T17:16:40;8.90;69.60
44851;DHT22;30583;48.714;9.386;2023-02-12T17:19:06;8.80;69.60
44851;DHT22;30583;48.714;9.386;2023-02-12T17:21:34;8.60;70.40
44851;DHT22;30583;48.714;9.386;2023-02-12T17:24:04;8.60;70.10
44851;DHT22;30583;48.714;9.386;2023-02-12T17:26:29;8.60;70.40
44851;DHT22;30583;48.714;9.386;2023-02-12T17:28:55;8.70;69.60
44851;DHT22;30583;48.714;9.386;2023-02-12T17:31:33;8.30;70.50
44851;DHT22;30583;48.714;9.386;2023-02-12T17:33:59;8.20;71.40
44851;DHT22;30583;48.714;9.386;2023-02-12T17:36:25;8.30;70.80
44851;DHT22;30583;48.714;9.386;2023-02-12T17:38:50;8.20;70.80
44851;DHT22;30583;48.714;9.386;2023-02-12T17:41:16;8.00;71.40
44851;DHT22;30583;48.714;9.386;2023-02-12T17:43:42;8.00;71.60
44851;DHT22;30583;48.714;9.386;2023-02-12T17:46:09;8.00;71.20
44851;DHT22;30583;48.714;9.386;2023-02-12T17:48:35;7.90;71.00
44851;DHT22;30583;48.714;9.386;2023-02-12T17:51:01;7.90;71.30
44851;DHT22;30583;48.714;9.386;2023-02-12T17:53:27;7.70;72.10
44851;DHT22;30583;48.714;9.386;2023-02-12T17:55:52;7.70;72.10
44851;DHT22;30583;48.714;9.386;2023-02-12T17:58:18;7.70;71.90
44851;DHT22;30583;48.714;9.386;2023-02-12T18:00:44;7.70;72.00
44851;DHT22;30583;48.714;9.386;2023-02-12T18:03:09;7.60;71.90
44851;DHT22;30583;48.714;9.386;2023-02-12T18:05:40;7.60;72.00
44851;DHT22;30583;48.714;9.386;2023-02-12T18:08:06;7.50;72.10
44851;DHT22;30583;48.714;9.386;2023-02-12T18:10:32;7.50;72.50
44851;DHT22;30583;48.714;9.386;2023-02-12T18:12:57;7.60;71.60
44851;DHT22;30583;48.714;9.386;2023-02-12T18:15:23;7.40;72.30
44851;DHT22;30583;48.714;9.386;2023-02-12T18:17:48;7.50;72.30
44851;DHT22;30583;48.714;9.386;2023-02-12T18:20:14;7.30;72.50
44851;DHT22;30583;48.714;9.386;2023-02-12T18:22:39;7.40;72.50
44851;DHT22;30583;48.714;9.386;2023-02-12T18:25:05;7.40;72.70
44851;DHT22;30583;48.714;9.386;2023-02-12T18:27:31;7.30;72.60
44851;DHT22;30583;48.714;9.386;2023-02-12T18:29:56;7.10;73.40
44851;DHT22;30583;48.714;9.386;2023-02-12T18:32:22;7.10;73.40
44851;DHT22;30583;48.714;9.386;2023-02-12T18:34:48;7.20;73.70
44851;DHT22;30583;48.714;9.386;2023-02-12T18:37:14;7.40;72.80
44851;DHT22;30583;48.714;9.386;2023-02-12T18:39:40;7.40;72.60
44851;DHT22;30583;48.714;9.386;2023-02-12T18:42:05;7.40;72.30
44851;DHT22;30583;48.714;9.386;2023-02-12T18:44:31;7.50;72.50
44851;DHT22;30583;48.714;9.386;2023-02-12T18:46:57;7.40;72.20
44851;DHT22;30583;48.714;9.386;2023-02-12T18:49:27;7.30;73.00
44851;DHT22;30583;48.714;9.386;2023-02-12T18:51:53;7.40;72.40
44851;DHT22;30583;48.714;9.386;2023-02-12T18:54:19;7.40;72.70
44851;DHT22;30583;48.714;9.386;2023-02-12T18:56:45;7.30;72.20
44851;DHT22;30583;48.714;9.386;2023-02-12T18:59:14;7.30;72.80
44851;DHT22;30583;48.714;9.386;2023-02-12T19:01:40;7.40;72.40